sensor_id;sensor_type;location;lat;lon;timestamp;pressure;altitude;pressure_sealevel;temperature;humidity
51313;BME280;37397;53.226;10.400;2023-02-20T00:00:57;101672.34;;;6.12;72.43
51313;BME280;37397;53.226;10.400;2023-02-20T00:03:24;101667.47;;;6.13;72.32
51313;BME280;37397;53.226;10.400;2023-02-20T00:05:50;101655.34;;;6.12;72.46
51313;BME280;37397;53.226;10.400;2023-02-20T00:08:17;101653.72;;;6.11;72.39
51313;BME280;37397;53.226;10.400;2023-02-20T00:10:43;101658.53;;;6.14;72.58
51313;BME280;37397;53.226;10.400;2023-02-20T00:13:10;101639.91;;;6.13;72.49
51313;BME280;37397;53.226;10.400;2023-02-20T00:15:36;101635.84;;;6.14;72.42
51313;BME280;37397;53.226;10.400;2023-02-20T00:18:03;101628.56;;;6.13;72.82
51313;BME280;37397;53.226;10.400;2023-02-20T00:20:30;101635.84;;;6.14;72.67
51313;BME280;37397;53.226;10.400;2023-02-20T00:22:58;101637.47;;;6.15;72.65
51313;BME280;37397;53.226;10.400;2023-02-20T00:25:25;101633.38;;;6.16;72.60
51313;BME280;37397;53.226;10.400;2023-02-20T00:27:51;101619.66;;;6.15;72.93
51313;BME280;37397;53.226;10.400;2023-02-20T00:30:20;101620.47;;;6.15;72.83
51313;BME280;37397;53.226;10.400;2023-02-20T00:32:49;101619.66;;;6.15;73.01
51313;BME280;37397;53.226;10.400;2023-02-20T00:35:17;101612.75;;;6.16;73.09
51313;BME280;37397;53.226;10.400;2023-02-20T00:37:45;101612.31;;;6.17;72.91
51313;BME280;37397;53.226;10.400;2023-02-20T00:40:13;101602.59;;;6.18;72.76
51313;BME280;37397;53.226;10.400;2023-02-20T00:42:39;101597.72;;;6.19;73.00
51313;BME280;37397;53.226;10.400;2023-02-20T00:45:06;101589.66;;;6.17;73.10
51313;BME280;37397;53.226;10.400;2023-02-20T00:47:33;101573.44;;;6.18;73.11
51313;BME280;37397;53.226;10.400;2023-02-20T00:50:01;101572.56;;;6.21;73.28
51313;BME280;37397;53.226;10.400;2023-02-20T00:52:27;101569.31;;;6.23;73.11
51313;BME280;37397;53.226;10.400;2023-02-20T00:54:54;101560.81;;;6.23;73.51
51313;BME280;37397;53.226;10.400;2023-02-20T00:57:20;101549.03;;;6.24;73.32
51313;BME280;37397;53.226;10.400;2023-02-20T00:59:47;101540.19;;;6.22;73.10
51313;BME280;37397;53.226;10.400;2023-02-20T01:02:14;101532.03;;;6.24;73.18
51313;BME280;37397;53.226;10.400;2023-02-20T01:04:41;101527.97;;;6.25;73.45
51313;BME280;37397;53.226;10.400;2023-02-20T01:07:08;101527.16;;;6.25;73.19
51313;BME280;37397;53.226;10.400;2023-02-20T01:09:34;101527.91;;;6.29;73.31
51313;BME280;37397;53.226;10.400;2023-02-20T01:12:01;101510.97;;;6.25;73.12
51313;BME280;37397;53.226;10.400;2023-02-20T01:14:27;101502.03;;;6.27;73.38
51313;BME280;37397;53.226;10.400;2023-02-20T01:16:54;101506.84;;;6.30;73.37
51313;BME280;37397;53.226;10.400;2023-02-20T01:19:22;101508.41;;;6.31;73.30
51313;BME280;37397;53.226;10.400;2023-02-20T01:21:51;101495.84;;;6.32;73.31
51313;BME280;37397;53.226;10.400;2023-02-20T01:24:18;101498.69;;;6.32;73.39
51313;BME280;37397;53.226;10.400;2023-02-20T01:26:47;101494.63;;;6.33;73.15
51313;BME280;37397;53.226;10.400;2023-02-20T01:29:15;101495.41;;;6.33;73.11
51313;BME280;37397;53.226;10.400;2023-02-20T01:31:49;101494.63;;;6.33;73.26
51313;BME280;37397;53.226;10.400;2023-02-20T01:34:18;101498.63;;;6.35;73.76
51313;BME280;37397;53.226;10.400;2023-02-20T01:36:50;101499.44;;;6.36;73.47
51313;BME280;37397;53.226;10.400;2023-02-20T01:39:22;101493.75;;;6.36;73.61
51313;BME280;37397;53.226;10.400;2023-02-20T01:41:52;101467.44;;;6.35;73.22
51313;BME280;37397;53.226;10.400;2023-02-20T01:44:25;101472.66;;;6.37;73.60
51313;BME280;37397;53.226;10.400;2023-02-20T01:46:54;101451.59;;;6.38;73.62
51313;BME280;37397;53.226;10.400;2023-02-20T01:49:27;101443.88;;;6.38;73.39
51313;BME280;37397;53.226;10.400;2023-02-20T01:52:00;101450.78;;;6.37;73.25
51313;BME280;37397;53.226;10.400;2023-02-20T01:54:28;101448.03;;;6.34;73.60
51313;BME280;37397;53.226;10.400;2023-02-20T01:56:57;101455.56;;;6.41;73.33
51313;BME280;37397;53.226;10.400;2023-02-20T01:59:29;101449.13;;;6.40;73.25
51313;BME280;37397;53.226;10.400;2023-02-20T02:01:57;101460.03;;;6.42;73.25
51313;BME280;37397;53.226;10.400;2023-02-20T02:04:24;101452.31;;;6.42;73.53
51313;BME280;37397;53.226;10.400;2023-02-20T02:06:52;101448.69;;;6.42;73.29
51313;BME280;37397;53.226;10.400;2023-02-20T02:11:53;101447.03;;;6.44;73.27
51313;BME280;37397;53.226;10.400;2023-02-20T02:14:19;101442.94;;;6.45;73.46
51313;BME280;37397;53.226;10.400;2023-02-20T02:16:56;101424.69;;;6.46;73.35
51313;BME280;37397;53.226;10.400;2023-02-20T02:22:21;101414.97;;;6.47;73.16
51313;BME280;37397;53.226;10.400;2023-02-20T02:25:24;101404.50;;;6.44;73.22
51313;BME280;37397;53.226;10.400;2023-02-20T02:28:44;101406.94;;;6.42;73.37
51313;BME280;37397;53.226;10.400;2023-02-20T02:34:03;101398.38;;;6.46;73.41
51313;BME280;37397;53.226;10.400;2023-02-20T02:36:53;101376.94;;;6.45;73.48
51313;BME280;37397;53.226;10.400;2023-02-20T02:42:49;101371.63;;;6.47;73.23
51313;BME280;37397;53.226;10.400;2023-02-20T02:45:34;101363.94;;;6.47;73.50
51313;BME280;37397;53.226;10.400;2023-02-20T02:48:10;101355.78;;;6.49;73.61
51313;BME280;37397;53.226;10.400;2023-02-20T02:50:41;101355.78;;;6.49;73.44
51313;BME280;37397;53.226;10.400;2023-02-20T02:53:10;101347.63;;;6.51;73.31
51313;BME280;37397;53.226;10.400;2023-02-20T02:55:39;101349.22;;;6.52;73.44
51313;BME280;37397;53.226;10.400;2023-02-20T02:58:07;101346.81;;;6.51;73.45
51313;BME280;37397;53.226;10.400;2023-02-20T03:00:34;101341.06;;;6.54;73.44
51313;BME280;37397;53.226;10.400;2023-02-20T03:03:15;101341.84;;;6.55;73.43
51313;BME280;37397;53.226;10.400;2023-02-20T03:05:51;101332.13;;;6.56;73.64
51313;BME280;37397;53.226;10.400;2023-02-20T03:08:51;101324.06;;;6.54;73.45
51313;BME280;37397;53.226;10.400;2023-02-20T03:11:25;101328.94;;;6.54;73.39
51313;BME280;37397;53.226;10.400;2023-02-20T03:17:25;101327.25;;;6.56;73.54
51313;BME280;37397;53.226;10.400;2023-02-20T03:19:58;101314.31;;;6.55;73.77
51313;BME280;37397;53.226;10.400;2023-02-20T03:22:42;101319.59;;;6.53;73.94
51313;BME280;37397;53.226;10.400;2023-02-20T03:25:24;101295.69;;;6.54;73.96
51313;BME280;37397;53.226;10.400;2023-02-20T03:28:02;101298.88;;;6.56;73.89
51313;BME280;37397;53.226;10.400;2023-02-20T03:30:40;101288.34;;;6.57;73.68
51313;BME280;37397;53.226;10.400;2023-02-20T03:33:28;101291.19;;;6.57;73.65
51313;BME280;37397;53.226;10.400;2023-02-20T03:36:22;101286.66;;;6.60;73.37
51313;BME280;37397;53.226;10.400;2023-02-20T03:39:20;101295.97;;;6.60;73.71
51313;BME280;37397;53.226;10.400;2023-02-20T03:42:11;101298.81;;;6.60;73.94
51313;BME280;37397;53.226;10.400;2023-02-20T03:45:04;101291.19;;;6.57;74.09
51313;BME280;37397;53.226;10.400;2023-02-20T03:47:33;101277.81;;;6.57;73.89
51313;BME280;37397;53.226;10.400;2023-02-20T03:50:03;101259.91;;;6.61;74.00
51313;BME280;37397;53.226;10.400;2023-02-20T03:52:53;101265.56;;;6.61;74.15
51313;BME280;37397;53.226;10.400;2023-02-20T03:55:20;101270.38;;;6.64;74.25
51313;BME280;37397;53.226;10.400;2023-02-20T03:57:54;101275.22;;;6.63;74.16
51313;BME280;37397;53.226;10.400;2023-02-20T04:00:26;101276.72;;;6.68;74.23
51313;BME280;37397;53.226;10.400;2023-02-20T04:02:58;101271.06;;;6.68;74.17
51313;BME280;37397;53.226;10.400;2023-02-20T04:05:37;101248.75;;;6.70;74.24
51313;BME280;37397;53.226;10.400;2023-02-20T04:08:10;101252.72;;;6.72;73.93
51313;BME280;37397;53.226;10.400;2023-02-20T04:10:45;101254.75;;;6.72;74.14
51313;BME280;37397;53.226;10.400;2023-02-20T04:13:16;101257.94;;;6.74;74.13
51313;BME280;37397;53.226;10.400;2023-02-20T04:15:46;101275.84;;;6.71;74.08
51313;BME280;37397;53.226;10.400;2023-02-20T04:18:16;101291.09;;;6.77;74.04
51313;BME280;37397;53.226;10.400;2023-02-20T04:20:47;101285.53;;;6.73;74.16
51313;BME280;37397;53.226;10.400;2023-02-20T04:23:24;101274.06;;;6.77;73.76
51313;BME280;37397;53.226;10.400;2023-02-20T04:25:58;101277.25;;;6.79;74.16
51313;BME280;37397;53.226;10.400;2023-02-20T04:28:29;101256.97;;;6.81;74.21
51313;BME280;37397;53.226;10.400;2023-02-20T04:31:00;101254.56;;;6.79;74.18
51313;BME280;37397;53.226;10.400;2023-02-20T04:33:28;101252.53;;;6.80;74.17
51313;BME280;37397;53.226;10.400;2023-02-20T04:36:00;101262.63;;;6.81;74.20
51313;BME280;37397;53.226;10.400;2023-02-20T04:38:27;101245.63;;;6.81;74.22
51313;BME280;37397;53.226;10.400;2023-02-20T04:40:55;101239.88;;;6.84;74.00
51313;BME280;37397;53.226;10.400;2023-02-20T04:43:21;101240.75;;;6.81;74.16
51313;BME280;37397;53.226;10.400;2023-02-20T04:45:49;101232.94;;;6.85;74.22
51313;BME280;37397;53.226;10.400;2023-02-20T04:48:17;101241.44;;;6.85;74.19
51313;BME280;37397;53.226;10.400;2023-02-20T04:50:43;101237.38;;;6.86;73.88
51313;BME280;37397;53.226;10.400;2023-02-20T04:53:12;101235.78;;;6.85;74.04
51313;BME280;37397;53.226;10.400;2023-02-20T04:55:38;101219.09;;;6.87;73.82
51313;BME280;37397;53.226;10.400;2023-02-20T04:58:10;101217.06;;;6.88;73.86
51313;BME280;37397;53.226;10.400;2023-02-20T05:00:49;101204.91;;;6.87;73.82
51313;BME280;37397;53.226;10.400;2023-02-20T05:03:16;101202.88;;;6.88;73.97
51313;BME280;37397;53.226;10.400;2023-02-20T05:05:42;101202.50;;;6.86;73.81
51313;BME280;37397;53.226;10.400;2023-02-20T05:08:08;101199.69;;;6.86;73.86
51313;BME280;37397;53.226;10.400;2023-02-20T05:10:35;101183.13;;;6.84;73.84
51313;BME280;37397;53.226;10.400;2023-02-20T05:13:02;101176.53;;;6.87;73.92
51313;BME280;37397;53.226;10.400;2023-02-20T05:15:30;101176.53;;;6.87;73.98
51313;BME280;37397;53.226;10.400;2023-02-20T05:17:56;101166.00;;;6.88;73.70
51313;BME280;37397;53.226;10.400;2023-02-20T05:20:23;101173.38;;;6.85;73.85
51313;BME280;37397;53.226;10.400;2023-02-20T05:23:09;101159.53;;;6.87;74.09
51313;BME280;37397;53.226;10.400;2023-02-20T05:25:36;101160.44;;;6.84;74.15
51313;BME280;37397;53.226;10.400;2023-02-20T05:28:03;101175.75;;;6.87;73.86
51313;BME280;37397;53.226;10.400;2023-02-20T05:30:29;101178.16;;;6.88;74.09
51313;BME280;37397;53.226;10.400;2023-02-20T05:32:56;101180.19;;;6.88;74.02
51313;BME280;37397;53.226;10.400;2023-02-20T05:35:22;101181.75;;;6.89;74.07
51313;BME280;37397;53.226;10.400;2023-02-20T05:37:48;101172.47;;;6.88;74.04
51313;BME280;37397;53.226;10.400;2023-02-20T05:40:15;101161.13;;;6.88;74.13
51313;BME280;37397;53.226;10.400;2023-02-20T05:42:42;101149.78;;;6.88;73.98
51313;BME280;37397;53.226;10.400;2023-02-20T05:45:08;101142.88;;;6.89;74.00
51313;BME280;37397;53.226;10.400;2023-02-20T05:47:37;101151.38;;;6.89;74.02
51313;BME280;37397;53.226;10.400;2023-02-20T05:50:05;101136.75;;;6.91;74.22
51313;BME280;37397;53.226;10.400;2023-02-20T05:52:31;101133.47;;;6.92;74.31
51313;BME280;37397;53.226;10.400;2023-02-20T05:54:58;101140.03;;;6.89;74.06
51313;BME280;37397;53.226;10.400;2023-02-20T05:57:24;101131.53;;;6.89;74.15
51313;BME280;37397;53.226;10.400;2023-02-20T05:59:51;101135.03;;;6.93;74.45
51313;BME280;37397;53.226;10.400;2023-02-20T06:02:17;101118.00;;;6.93;74.32
51313;BME280;37397;53.226;10.400;2023-02-20T06:04:43;101130.97;;;6.94;74.29
51313;BME280;37397;53.226;10.400;2023-02-20T06:07:10;101113.94;;;6.94;74.26
51313;BME280;37397;53.226;10.400;2023-02-20T06:09:40;101114.72;;;6.95;74.16
51313;BME280;37397;53.226;10.400;2023-02-20T06:12:07;101112.72;;;6.96;74.29
51313;BME280;37397;53.226;10.400;2023-02-20T06:14:33;101109.16;;;6.91;74.25
51313;BME280;37397;53.226;10.400;2023-02-20T06:17:00;101111.44;;;6.97;74.25
51313;BME280;37397;53.226;10.400;2023-02-20T06:19:26;101113.03;;;6.98;74.27
51313;BME280;37397;53.226;10.400;2023-02-20T06:21:53;101090.34;;;6.98;74.50
51313;BME280;37397;53.226;10.400;2023-02-20T06:24:20;101098.84;;;6.98;74.46
51313;BME280;37397;53.226;10.400;2023-02-20T06:26:47;101086.25;;;6.99;74.24
51313;BME280;37397;53.226;10.400;2023-02-20T06:29:14;101070.03;;;6.99;74.30
51313;BME280;37397;53.226;10.400;2023-02-20T06:31:42;101076.94;;;6.98;74.33
51313;BME280;37397;53.226;10.400;2023-02-20T06:34:09;101062.66;;;7.02;74.34
51313;BME280;37397;53.226;10.400;2023-02-20T06:36:38;101068.31;;;7.02;74.55
51313;BME280;37397;53.226;10.400;2023-02-20T06:39:07;101064.25;;;7.03;74.43
51313;BME280;37397;53.226;10.400;2023-02-20T06:41:34;101067.09;;;7.03;74.49
51313;BME280;37397;53.226;10.400;2023-02-20T06:44:01;101058.25;;;7.01;74.60
51313;BME280;37397;53.226;10.400;2023-02-20T06:46:27;101076.31;;;7.07;74.52
51313;BME280;37397;53.226;10.400;2023-02-20T06:48:56;101057.69;;;7.06;74.53
51313;BME280;37397;53.226;10.400;2023-02-20T06:51:26;101055.28;;;7.04;74.52
51313;BME280;37397;53.226;10.400;2023-02-20T06:53:53;101065.75;;;7.07;74.61
51313;BME280;37397;53.226;10.400;2023-02-20T06:56:22;101069.81;;;7.06;74.49
51313;BME280;37397;53.226;10.400;2023-02-20T06:58:50;101062.19;;;7.03;74.65
51313;BME280;37397;53.226;10.400;2023-02-20T07:01:18;101055.19;;;7.08;74.99
51313;BME280;37397;53.226;10.400;2023-02-20T07:03:46;101065.63;;;7.11;74.83
51313;BME280;37397;53.226;10.400;2023-02-20T07:06:16;101056.00;;;7.08;74.97
51313;BME280;37397;53.226;10.400;2023-02-20T07:08:43;101060.72;;;7.11;74.91
51313;BME280;37397;53.226;10.400;2023-02-20T07:11:10;101072.09;;;7.11;75.15
51313;BME280;37397;53.226;10.400;2023-02-20T07:13:37;101085.16;;;7.09;75.10
51313;BME280;37397;53.226;10.400;2023-02-20T07:16:03;101095.94;;;7.14;75.04
51313;BME280;37397;53.226;10.400;2023-02-20T07:18:30;101081.31;;;7.16;75.25
51313;BME280;37397;53.226;10.400;2023-02-20T07:20:56;101079.69;;;7.15;75.20
51313;BME280;37397;53.226;10.400;2023-02-20T07:23:23;101076.41;;;7.16;75.22
51313;BME280;37397;53.226;10.400;2023-02-20T07:25:50;101058.16;;;7.17;75.50
51313;BME280;37397;53.226;10.400;2023-02-20T07:28:17;101075.19;;;7.17;75.39
51313;BME280;37397;53.226;10.400;2023-02-20T07:30:45;101072.66;;;7.19;75.39
51313;BME280;37397;53.226;10.400;2023-02-20T07:33:17;101069.38;;;7.21;75.27
51313;BME280;37397;53.226;10.400;2023-02-20T07:35:44;101077.13;;;7.20;75.20
51313;BME280;37397;53.226;10.400;2023-02-20T07:38:11;101079.94;;;7.20;75.35
51313;BME280;37397;53.226;10.400;2023-02-20T07:40:38;101077.13;;;7.20;75.50
51313;BME280;37397;53.226;10.400;2023-02-20T07:43:05;101096.75;;;7.27;75.53
51313;BME280;37397;53.226;10.400;2023-02-20T07:45:36;101076.44;;;7.29;75.33
51313;BME280;37397;53.226;10.400;2023-02-20T07:48:04;101064.75;;;7.27;75.46
51313;BME280;37397;53.226;10.400;2023-02-20T07:50:31;101079.63;;;7.31;75.23
51313;BME280;37397;53.226;10.400;2023-02-20T07:52:57;101080.41;;;7.32;75.41
51313;BME280;37397;53.226;10.400;2023-02-20T07:55:24;101084.41;;;7.34;75.55
51313;BME280;37397;53.226;10.400;2023-02-20T07:57:50;101078.25;;;7.36;75.37
51313;BME280;37397;53.226;10.400;2023-02-20T08:00:20;101072.25;;;7.34;75.20
51313;BME280;37397;53.226;10.400;2023-02-20T08:02:47;101086.31;;;7.37;75.54
51313;BME280;37397;53.226;10.400;2023-02-20T08:05:13;101084.28;;;7.38;75.72
51313;BME280;37397;53.226;10.400;2023-02-20T08:07:47;101086.56;;;7.43;75.32
51313;BME280;37397;53.226;10.400;2023-02-20T08:10:15;101093.84;;;7.44;75.24
51313;BME280;37397;53.226;10.400;2023-02-20T08:12:43;101079.19;;;7.45;75.43
51313;BME280;37397;53.226;10.400;2023-02-20T08:15:09;101072.69;;;7.45;75.39
51313;BME280;37397;53.226;10.400;2023-02-20T08:17:38;101060.09;;;7.46;75.44
51313;BME280;37397;53.226;10.400;2023-02-20T08:20:15;101070.56;;;7.49;75.42
51313;BME280;37397;53.226;10.400;2023-02-20T08:22:44;101069.28;;;7.50;75.30
51313;BME280;37397;53.226;10.400;2023-02-20T08:25:11;101061.13;;;7.52;75.50
51313;BME280;37397;53.226;10.400;2023-02-20T08:27:41;101066.81;;;7.52;75.41
51313;BME280;37397;53.226;10.400;2023-02-20T08:30:14;101065.22;;;7.51;75.36
51313;BME280;37397;53.226;10.400;2023-02-20T08:32:41;101067.59;;;7.53;75.57
51313;BME280;37397;53.226;10.400;2023-02-20T08:35:07;101071.59;;;7.55;75.52
51313;BME280;37397;53.226;10.400;2023-02-20T08:37:34;101059.41;;;7.55;75.63
51313;BME280;37397;53.226;10.400;2023-02-20T08:40:00;101057.72;;;7.57;75.54
51313;BME280;37397;53.226;10.400;2023-02-20T08:42:32;101037.06;;;7.57;75.63
51313;BME280;37397;53.226;10.400;2023-02-20T08:45:00;101043.06;;;7.59;75.57
51313;BME280;37397;53.226;10.400;2023-02-20T08:47:26;101029.19;;;7.61;75.59
51313;BME280;37397;53.226;10.400;2023-02-20T08:49:53;101017.97;;;7.57;75.50
51313;BME280;37397;53.226;10.400;2023-02-20T08:52:19;101020.22;;;7.62;75.76
51313;BME280;37397;53.226;10.400;2023-02-20T08:54:47;101026.22;;;7.64;75.81
51313;BME280;37397;53.226;10.400;2023-02-20T08:57:16;101035.56;;;7.65;75.62
51313;BME280;37397;53.226;10.400;2023-02-20T08:59:43;101018.97;;;7.63;75.62
51313;BME280;37397;53.226;10.400;2023-02-20T09:02:36;101015.69;;;7.65;75.74
51313;BME280;37397;53.226;10.400;2023-02-20T09:05:02;101009.88;;;7.69;75.61
51313;BME280;37397;53.226;10.400;2023-02-20T09:07:30;101008.63;;;7.70;75.78
51313;BME280;37397;53.226;10.400;2023-02-20T09:09:56;101001.34;;;7.69;75.92
51313;BME280;37397;53.226;10.400;2023-02-20T09:12:23;101007.38;;;7.71;75.59
51313;BME280;37397;53.226;10.400;2023-02-20T09:14:49;101001.34;;;7.69;76.03
51313;BME280;37397;53.226;10.400;2023-02-20T09:17:16;101013.38;;;7.73;76.02
51313;BME280;37397;53.226;10.400;2023-02-20T09:19:42;100994.31;;;7.73;76.04
51313;BME280;37397;53.226;10.400;2023-02-20T09:22:09;101006.47;;;7.74;75.84
51313;BME280;37397;53.226;10.400;2023-02-20T09:24:35;101006.78;;;7.76;76.04
51313;BME280;37397;53.226;10.400;2023-02-20T09:27:03;100990.66;;;7.73;76.09
51313;BME280;37397;53.226;10.400;2023-02-20T09:29:31;100991.81;;;7.75;75.95
51313;BME280;37397;53.226;10.400;2023-02-20T09:31:58;100980.09;;;7.73;76.00
51313;BME280;37397;53.226;10.400;2023-02-20T09:34:24;101002.56;;;7.80;76.17
51313;BME280;37397;53.226;10.400;2023-02-20T09:36:51;100974.97;;;7.81;76.15
51313;BME280;37397;53.226;10.400;2023-02-20T09:39:20;100994.88;;;7.81;76.26
51313;BME280;37397;53.226;10.400;2023-02-20T09:50:21;100950.66;;;7.80;76.49
51313;BME280;37397;53.226;10.400;2023-02-20T09:52:58;100991.09;;;7.84;76.30
51313;BME280;37397;53.226;10.400;2023-02-20T09:55:33;100961.44;;;7.85;76.61
51313;BME280;37397;53.226;10.400;2023-02-20T09:58:02;100972.34;;;7.87;76.75
51313;BME280;37397;53.226;10.400;2023-02-20T10:00:32;100961.28;;;7.89;76.70
51313;BME280;37397;53.226;10.400;2023-02-20T10:03:16;100954.84;;;7.88;76.76
51313;BME280;37397;53.226;10.400;2023-02-20T10:05:45;100955.97;;;7.91;76.93
51313;BME280;37397;53.226;10.400;2023-02-20T10:08:19;100949.94;;;7.89;76.97
51313;BME280;37397;53.226;10.400;2023-02-20T10:10:48;100954.38;;;7.90;77.07
51313;BME280;37397;53.226;10.400;2023-02-20T10:13:42;100939.72;;;7.91;77.15
51313;BME280;37397;53.226;10.400;2023-02-20T10:16:24;100944.59;;;7.91;76.83
51313;BME280;37397;53.226;10.400;2023-02-20T10:19:27;100937.19;;;7.93;76.99
51313;BME280;37397;53.226;10.400;2023-02-20T10:22:13;100926.63;;;7.94;77.09
51313;BME280;37397;53.226;10.400;2023-02-20T10:24:53;100936.28;;;7.96;76.99
51313;BME280;37397;53.226;10.400;2023-02-20T10:27:37;100919.22;;;7.96;76.98
51313;BME280;37397;53.226;10.400;2023-02-20T10:30:11;100918.91;;;7.94;77.09
51313;BME280;37397;53.226;10.400;2023-02-20T10:32:45;100928.06;;;7.98;77.21
51313;BME280;37397;53.226;10.400;2023-02-20T10:35:19;100947.50;;;8.00;77.08
51313;BME280;37397;53.226;10.400;2023-02-20T10:37:52;100937.28;;;8.02;77.15
51313;BME280;37397;53.226;10.400;2023-02-20T10:40:30;100906.00;;;8.02;77.36
51313;BME280;37397;53.226;10.400;2023-02-20T10:45:49;100903.50;;;8.04;77.43
51313;BME280;37397;53.226;10.400;2023-02-20T10:48:18;100920.56;;;8.04;77.41
51313;BME280;37397;53.226;10.400;2023-02-20T10:50:54;100927.03;;;8.05;77.24
51313;BME280;37397;53.226;10.400;2023-02-20T10:56:18;100923.75;;;8.07;77.36
51313;BME280;37397;53.226;10.400;2023-02-20T11:01:37;100914.25;;;8.10;77.61
51313;BME280;37397;53.226;10.400;2023-02-20T11:04:11;100919.03;;;8.13;77.29
51313;BME280;37397;53.226;10.400;2023-02-20T11:07:06;100932.47;;;8.12;77.46
51313;BME280;37397;53.226;10.400;2023-02-20T11:09:34;100919.50;;;8.11;77.60
51313;BME280;37397;53.226;10.400;2023-02-20T11:12:00;100914.47;;;8.15;77.71
51313;BME280;37397;53.226;10.400;2023-02-20T11:17:12;100907.09;;;8.18;77.64
51313;BME280;37397;53.226;10.400;2023-02-20T11:19:45;100901.72;;;8.20;77.80
51313;BME280;37397;53.226;10.400;2023-02-20T11:22:13;100921.63;;;8.20;77.85
51313;BME280;37397;53.226;10.400;2023-02-20T11:24:41;100907.72;;;8.22;77.79
51313;BME280;37397;53.226;10.400;2023-02-20T11:27:12;100906.13;;;8.21;77.97
51313;BME280;37397;53.226;10.400;2023-02-20T11:34:45;100903.28;;;8.21;78.21
51313;BME280;37397;53.226;10.400;2023-02-20T11:37:12;100912.81;;;8.27;78.19
51313;BME280;37397;53.226;10.400;2023-02-20T11:39:46;100889.16;;;8.30;78.23
51313;BME280;37397;53.226;10.400;2023-02-20T11:42:17;100908.13;;;8.33;78.52
51313;BME280;37397;53.226;10.400;2023-02-20T11:45:10;100903.38;;;8.30;78.49
51313;BME280;37397;53.226;10.400;2023-02-20T11:47:37;100907.19;;;8.36;78.46
51313;BME280;37397;53.226;10.400;2023-02-20T11:50:13;100912.09;;;8.36;78.52
51313;BME280;37397;53.226;10.400;2023-02-20T11:52:58;100902.44;;;8.33;78.99
51313;BME280;37397;53.226;10.400;2023-02-20T11:55:25;100901.97;;;8.35;78.68
51313;BME280;37397;53.226;10.400;2023-02-20T11:57:53;100900.28;;;8.37;78.84
51313;BME280;37397;53.226;10.400;2023-02-20T12:00:29;100902.19;;;8.40;78.84
51313;BME280;37397;53.226;10.400;2023-02-20T12:05:41;100906.16;;;8.43;79.11
51313;BME280;37397;53.226;10.400;2023-02-20T12:08:35;100910.16;;;8.46;79.37
51313;BME280;37397;53.226;10.400;2023-02-20T12:11:12;100914.09;;;8.48;79.05
51313;BME280;37397;53.226;10.400;2023-02-20T12:13:43;100904.16;;;8.53;79.20
51313;BME280;37397;53.226;10.400;2023-02-20T12:18:46;100901.66;;;8.55;79.53
51313;BME280;37397;53.226;10.400;2023-02-20T12:21:21;100917.78;;;8.58;79.48
51313;BME280;37397;53.226;10.400;2023-02-20T12:24:01;100908.00;;;8.59;79.54
51313;BME280;37397;53.226;10.400;2023-02-20T12:26:46;100877.63;;;8.56;79.59
51313;BME280;37397;53.226;10.400;2023-02-20T12:29:35;100889.22;;;8.62;79.74
51313;BME280;37397;53.226;10.400;2023-02-20T12:32:28;100896.00;;;8.64;79.71
51313;BME280;37397;53.226;10.400;2023-02-20T12:35:03;100882.72;;;8.61;80.04
51313;BME280;37397;53.226;10.400;2023-02-20T12:40:20;100856.53;;;8.66;79.55
51313;BME280;37397;53.226;10.400;2023-02-20T12:43:03;100845.47;;;8.68;79.59
51313;BME280;37397;53.226;10.400;2023-02-20T12:45:46;100845.78;;;8.70;79.50
51313;BME280;37397;53.226;10.400;2023-02-20T12:48:51;100830.94;;;8.66;79.93
51313;BME280;37397;53.226;10.400;2023-02-20T12:51:42;100829.19;;;8.69;79.55
51313;BME280;37397;53.226;10.400;2023-02-20T12:54:28;100847.06;;;8.79;79.70
51313;BME280;37397;53.226;10.400;2023-02-20T12:57:28;100830.00;;;8.79;79.74
51313;BME280;37397;53.226;10.400;2023-02-20T13:00:40;100839.81;;;8.78;79.60
51313;BME280;37397;53.226;10.400;2023-02-20T13:03:22;100839.19;;;8.83;79.46
51313;BME280;37397;53.226;10.400;2023-02-20T13:05:50;100832.22;;;8.84;79.59
51313;BME280;37397;53.226;10.400;2023-02-20T13:08:51;100832.22;;;8.84;79.86
51313;BME280;37397;53.226;10.400;2023-02-20T13:11:21;100838.91;;;8.90;79.59
51313;BME280;37397;53.226;10.400;2023-02-20T13:14:21;100842.69;;;8.87;79.64
51313;BME280;37397;53.226;10.400;2023-02-20T13:17:16;100824.66;;;8.90;79.72
51313;BME280;37397;53.226;10.400;2023-02-20T13:19:57;100832.56;;;8.95;79.56
51313;BME280;37397;53.226;10.400;2023-02-20T13:22:25;100830.84;;;8.98;79.64
51313;BME280;37397;53.226;10.400;2023-02-20T13:24:51;100813.31;;;8.99;79.65
51313;BME280;37397;53.226;10.400;2023-02-20T13:27:29;100820.25;;;8.98;79.44
51313;BME280;37397;53.226;10.400;2023-02-20T13:30:16;100817.75;;;9.00;79.59
51313;BME280;37397;53.226;10.400;2023-02-20T13:32:43;100824.06;;;9.04;79.66
51313;BME280;37397;53.226;10.400;2023-02-20T13:35:31;100824.88;;;9.05;79.66
51313;BME280;37397;53.226;10.400;2023-02-20T13:38:12;100831.66;;;9.07;79.65
51313;BME280;37397;53.226;10.400;2023-02-20T13:40:41;100828.81;;;9.07;79.61
51313;BME280;37397;53.226;10.400;2023-02-20T13:45:39;100835.81;;;9.16;79.51
51313;BME280;37397;53.226;10.400;2023-02-20T13:48:17;100822.84;;;9.15;79.44
51313;BME280;37397;53.226;10.400;2023-02-20T13:50:44;100824.41;;;9.16;79.71
51313;BME280;37397;53.226;10.400;2023-02-20T13:53:11;100840.09;;;9.20;79.62
51313;BME280;37397;53.226;10.400;2023-02-20T13:55:40;100838.00;;;9.21;79.60
51313;BME280;37397;53.226;10.400;2023-02-20T13:58:12;100824.13;;;9.23;79.66
51313;BME280;37397;53.226;10.400;2023-02-20T14:00:46;100828.53;;;9.24;79.58
51313;BME280;37397;53.226;10.400;2023-02-20T14:03:21;100821.59;;;9.25;79.63
51313;BME280;37397;53.226;10.400;2023-02-20T14:06:10;100830.44;;;9.27;79.45